createdAt,value
2022-07-28T00:01:23.915Z,14.40
2022-07-28T00:06:26.431Z,14.60
2022-07-28T00:11:28.877Z,14.30
2022-07-28T00:16:31.381Z,14.00
2022-07-28T00:21:34.946Z,14.00
2022-07-28T00:26:37.936Z,14.20
2022-07-28T00:31:40.667Z,14.00
2022-07-28T00:36:43.096Z,14.00
2022-07-28T00:41:46.353Z,13.90
2022-07-28T00:46:50.319Z,14.00
2022-07-28T00:51:53.434Z,13.90
2022-07-28T00:56:56.093Z,14.00
2022-07-28T01:01:58.825Z,13.50
2022-07-28T01:07:16.526Z,13.40
2022-07-28T01:12:23.303Z,13.30
2022-07-28T01:17:28.682Z,13.20
2022-07-28T01:22:35.139Z,13.30
2022-07-28T01:27:53.342Z,13.40
2022-07-28T01:33:04.082Z,13.50
2022-07-28T01:38:08.839Z,13.40
2022-07-28T01:43:17.609Z,13.10
2022-07-28T01:48:20.971Z,12.80
2022-07-28T01:53:25.349Z,12.90
2022-07-28T01:58:30.302Z,12.80
2022-07-28T02:03:34.701Z,12.70
2022-07-28T02:08:39.676Z,12.50
2022-07-28T02:13:42.917Z,12.70
2022-07-28T02:18:45.877Z,12.80
2022-07-28T02:23:50.372Z,12.80
2022-07-28T02:28:56.485Z,12.70
2022-07-28T02:34:03.265Z,12.60
2022-07-28T02:39:12.079Z,12.60
2022-07-28T02:44:21.555Z,12.70
2022-07-28T02:49:30.837Z,12.60
2022-07-28T02:54:35.282Z,12.40
2022-07-28T02:59:38.324Z,12.20
2022-07-28T03:04:59.614Z,12.00
2022-07-28T03:10:04.066Z,12.20
2022-07-28T03:15:06.834Z,12.30
2022-07-28T03:20:10.171Z,12.40
2022-07-28T03:25:19.283Z,12.10
2022-07-28T03:30:27.845Z,12.00
2022-07-28T03:35:32.894Z,12.00
2022-07-28T03:40:37.699Z,11.90
2022-07-28T03:45:41.765Z,12.20
2022-07-28T03:50:49.274Z,12.00
2022-07-28T03:55:52.147Z,12.10
2022-07-28T04:00:54.881Z,12.10
2022-07-28T04:05:57.990Z,12.20
2022-07-28T04:11:00.483Z,12.30
2022-07-28T04:16:03.784Z,12.30
2022-07-28T04:21:06.584Z,12.50
2022-07-28T04:26:09.059Z,12.70
2022-07-28T04:31:11.586Z,12.90
2022-07-28T04:36:14.262Z,13.00
2022-07-28T04:41:16.729Z,13.10
2022-07-28T04:46:19.506Z,13.40
2022-07-28T04:51:23.203Z,13.40
2022-07-28T04:56:25.691Z,13.70
2022-07-28T05:01:30.939Z,13.90
2022-07-28T05:06:35.422Z,14.10
2022-07-28T05:11:37.810Z,14.60
2022-07-28T05:16:40.253Z,15.00
2022-07-28T05:21:42.903Z,15.20
2022-07-28T05:26:45.679Z,15.30
2022-07-28T05:31:48.381Z,15.40
2022-07-28T05:36:52.354Z,15.60
2022-07-28T05:41:54.794Z,15.80
2022-07-28T05:46:57.209Z,15.90
2022-07-28T05:51:59.702Z,15.90
2022-07-28T05:57:02.137Z,16.10
2022-07-28T06:02:04.626Z,16.10
2022-07-28T06:07:09.543Z,16.30
2022-07-28T06:12:12.451Z,16.50
2022-07-28T06:17:16.012Z,16.70
2022-07-28T06:22:18.480Z,16.80
2022-07-28T06:27:20.937Z,17.00
2022-07-28T06:32:23.335Z,17.10
2022-07-28T06:37:26.489Z,17.20
2022-07-28T06:42:28.955Z,17.40
2022-07-28T06:47:31.791Z,17.50
2022-07-28T06:52:37.078Z,17.50
2022-07-28T06:57:39.519Z,17.60
2022-07-28T07:02:42.528Z,17.80
2022-07-28T07:07:45.112Z,17.90
2022-07-28T07:12:47.892Z,17.90
2022-07-28T07:17:50.340Z,18.00
2022-07-28T07:22:52.822Z,18.20
2022-07-28T07:27:55.469Z,18.30
2022-07-28T07:32:57.887Z,18.50
2022-07-28T07:38:00.801Z,18.50
2022-07-28T07:43:03.297Z,18.50
2022-07-28T07:48:05.947Z,18.50
2022-07-28T07:53:08.360Z,18.50
2022-07-28T07:58:10.855Z,18.70
2022-07-28T08:03:15.212Z,18.80
2022-07-28T08:08:17.792Z,18.90
2022-07-28T08:13:23.842Z,19.00
2022-07-28T08:18:26.318Z,19.20
2022-07-28T08:23:28.803Z,19.20
2022-07-28T08:28:31.272Z,19.30
2022-07-28T08:33:33.991Z,19.40
2022-07-28T08:38:36.810Z,19.60
2022-07-28T08:43:42.596Z,19.70
2022-07-28T08:48:45.975Z,19.80
2022-07-28T08:53:50.140Z,19.80
2022-07-28T08:58:53.142Z,19.80
2022-07-28T09:03:55.919Z,20.10
2022-07-28T09:08:58.383Z,20.30
2022-07-28T09:14:00.817Z,20.50
2022-07-28T09:19:03.273Z,20.60
2022-07-28T09:24:06.264Z,20.60
2022-07-28T09:29:08.706Z,20.60
2022-07-28T09:34:11.442Z,20.80
2022-07-28T09:39:38.528Z,21.10
2022-07-28T09:44:50.749Z,21.10
2022-07-28T09:50:04.925Z,21.20
2022-07-28T09:55:11.926Z,21.60
2022-07-28T10:00:27.917Z,21.70
2022-07-28T10:05:41.116Z,21.90
2022-07-28T10:10:58.510Z,22.40
2022-07-28T10:16:11.455Z,23.00
2022-07-28T10:21:17.137Z,22.80
2022-07-28T10:26:24.978Z,23.10
2022-07-28T10:31:48.873Z,23.30
2022-07-28T10:36:52.930Z,23.50
2022-07-28T10:41:56.617Z,23.90
2022-07-28T10:46:59.289Z,24.00
2022-07-28T10:52:19.725Z,24.80
2022-07-28T10:57:30.487Z,25.10
2022-07-28T11:02:50.945Z,25.60
2022-07-28T11:07:54.205Z,25.30
2022-07-28T11:12:58.441Z,25.40
2022-07-28T11:18:08.732Z,25.60
2022-07-28T11:23:47.714Z,26.00
2022-07-28T11:29:11.239Z,27.40
2022-07-28T11:34:22.141Z,27.60
2022-07-28T11:39:26.270Z,27.60
2022-07-28T11:44:31.418Z,28.40
2022-07-28T11:49:34.071Z,29.00
2022-07-28T11:54:37.938Z,29.40
2022-07-28T11:59:47.192Z,29.70
2022-07-28T12:05:04.097Z,29.90
2022-07-28T12:15:57.639Z,30.00
2022-07-28T12:21:04.742Z,30.70
2022-07-28T12:26:07.859Z,31.80
2022-07-28T12:36:44.356Z,32.30
2022-07-28T12:42:04.405Z,31.70
2022-07-28T12:47:09.356Z,30.80
2022-07-28T12:52:22.717Z,32.60
2022-07-28T12:57:52.825Z,33.80
2022-07-28T13:02:57.599Z,34.70
2022-07-28T13:08:05.827Z,35.10
2022-07-28T13:13:08.800Z,35.70
2022-07-28T13:18:12.710Z,36.30
2022-07-28T13:23:15.454Z,36.00
2022-07-28T13:28:28.324Z,36.50
2022-07-28T13:33:30.920Z,36.90
2022-07-28T13:38:33.636Z,36.70
2022-07-28T13:43:36.648Z,36.50
2022-07-28T13:48:58.185Z,37.20
2022-07-28T13:54:02.903Z,37.80
2022-07-28T13:59:07.403Z,38.00
2022-07-28T14:04:16.621Z,38.80
2022-07-28T14:09:20.990Z,39.60
2022-07-28T14:14:25.241Z,39.10
2022-07-28T14:19:38.853Z,39.40
2022-07-28T14:24:42.684Z,39.70
2022-07-28T14:29:45.759Z,39.40
2022-07-28T14:34:48.162Z,39.60
2022-07-28T14:39:50.647Z,40.20
2022-07-28T14:44:53.589Z,41.10
2022-07-28T14:49:57.400Z,41.60
2022-07-28T14:55:00.853Z,41.00
2022-07-28T15:00:07.349Z,40.90
2022-07-28T15:05:10.356Z,41.80
2022-07-28T15:10:12.700Z,42.00
2022-07-28T15:15:15.044Z,41.90
2022-07-28T15:20:18.590Z,42.20
2022-07-28T15:25:21.074Z,41.70
2022-07-28T15:30:23.805Z,42.00
2022-07-28T15:35:26.259Z,42.50
2022-07-28T15:40:28.652Z,42.60
2022-07-28T15:45:32.610Z,42.40
2022-07-28T15:50:34.991Z,42.80
2022-07-28T15:55:37.377Z,43.20
2022-07-28T16:00:39.769Z,43.00
2022-07-28T16:05:44.084Z,43.10
2022-07-28T16:10:47.431Z,42.70
2022-07-28T16:15:49.959Z,41.60
2022-07-28T16:20:52.583Z,42.40
2022-07-28T16:25:55.054Z,42.30
2022-07-28T16:30:57.442Z,42.00
2022-07-28T16:35:59.859Z,41.80
2022-07-28T16:41:02.213Z,40.50
2022-07-28T16:46:04.874Z,40.80
2022-07-28T16:51:07.662Z,41.10
2022-07-28T16:56:10.082Z,39.90
2022-07-28T17:01:13.966Z,40.20
2022-07-28T17:06:16.398Z,39.70
2022-07-28T17:11:18.859Z,40.40
2022-07-28T17:16:21.265Z,40.60
2022-07-28T17:21:24.134Z,39.40
2022-07-28T17:31:49.855Z,37.90
2022-07-28T17:36:54.708Z,34.50
2022-07-28T17:41:57.359Z,32.40
2022-07-28T17:47:01.449Z,31.00
2022-07-28T17:52:06.064Z,30.00
2022-07-28T17:57:08.463Z,29.20
2022-07-28T18:02:11.231Z,28.60
2022-07-28T18:07:14.350Z,28.10
2022-07-28T18:12:17.361Z,27.50
2022-07-28T18:17:19.697Z,26.90
2022-07-28T18:22:22.369Z,26.30
2022-07-28T18:27:24.738Z,25.40
2022-07-28T18:32:27.085Z,25.20
2022-07-28T18:37:30.874Z,25.20
2022-07-28T18:42:33.948Z,25.10
2022-07-28T18:47:37.574Z,24.60
2022-07-28T18:52:49.825Z,24.10
2022-07-28T18:57:52.286Z,23.50
2022-07-28T19:02:54.878Z,23.00
2022-07-28T19:07:57.336Z,22.70
2022-07-28T19:12:59.836Z,22.80
2022-07-28T19:18:09.821Z,22.40
2022-07-28T19:23:14.735Z,22.00
2022-07-28T19:28:17.094Z,21.70
2022-07-28T19:33:21.408Z,21.40
2022-07-28T19:38:24.396Z,21.10
2022-07-28T19:43:26.757Z,20.90
2022-07-28T19:48:29.167Z,20.70
2022-07-28T19:53:34.499Z,21.00
2022-07-28T19:58:38.811Z,20.70
2022-07-28T20:04:01.414Z,20.60
2022-07-28T20:09:04.932Z,20.50
2022-07-28T20:14:07.328Z,20.30
2022-07-28T20:19:09.756Z,20.10
2022-07-28T20:24:13.832Z,20.10
2022-07-28T20:29:16.583Z,20.20
2022-07-28T20:34:19.594Z,20.00
2022-07-28T20:39:43.948Z,19.80
2022-07-28T20:44:45.227Z,19.60
2022-07-28T20:49:47.568Z,19.70
2022-07-28T20:54:54.365Z,19.60
2022-07-28T20:59:57.698Z,19.40
2022-07-28T21:05:00.101Z,19.40
2022-07-28T21:10:02.802Z,19.10
2022-07-28T21:15:06.613Z,19.20
2022-07-28T21:20:09.592Z,19.00
2022-07-28T21:25:12.368Z,19.10
2022-07-28T21:30:14.703Z,18.90
2022-07-28T21:35:17.112Z,18.80
2022-07-28T21:40:19.530Z,18.60
2022-07-28T21:45:22.291Z,18.60
2022-07-28T21:50:24.718Z,18.50
2022-07-28T21:55:27.220Z,18.60
2022-07-28T22:00:29.805Z,18.40
2022-07-28T22:05:32.220Z,18.20
2022-07-28T22:10:34.595Z,18.10
2022-07-28T22:15:37.093Z,18.10
2022-07-28T22:20:41.133Z,17.90
2022-07-28T22:25:44.124Z,17.80
2022-07-28T22:30:46.490Z,17.70
2022-07-28T22:35:48.832Z,17.90
2022-07-28T22:40:51.178Z,17.70
2022-07-28T22:45:53.564Z,17.50
2022-07-28T22:50:56.040Z,17.60
2022-07-28T22:55:58.646Z,17.60
2022-07-28T23:01:01.238Z,17.70
2022-07-28T23:06:05.702Z,17.50
2022-07-28T23:11:08.106Z,17.60
2022-07-28T23:16:11.889Z,17.70
2022-07-28T23:21:14.308Z,17.90
2022-07-28T23:26:17.029Z,17.80
2022-07-28T23:31:19.447Z,17.80
2022-07-28T23:36:27.645Z,17.60
2022-07-28T23:41:30.507Z,17.60
2022-07-28T23:46:33.099Z,17.50
2022-07-28T23:51:46.761Z,17.50
2022-07-28T23:56:52.380Z,17.50
